Time;durP1;ratioP1;P1;durP2;ratioP2;P2;SDS_P1;SDS_P2;PMS_P1;PMS_P2;Temp;Humidity;BMP_temperature;BMP_pressure;BME280_temperature;BME280_humidity;BME280_pressure;Samples;Min_cycle;Max_cycle;Signal;HPM_P1;HPM_P2
2023/09/08 00:00:32;;;;;;;6.32;5.38;;;;;;;;;;5015534;28;20060;-83
2023/09/08 00:02:59;;;;;;;6.97;5.85;;;;;;;;;;5014005;28;20049;-83
2023/09/08 00:05:27;;;;;;;7.10;6.18;;;;;;;;;;5030880;28;20049;-83
2023/09/08 00:07:54;;;;;;;12.23;5.65;;;;;;;;;;5033340;28;20060;-83
2023/09/08 00:10:21;;;;;;;8.93;5.38;;;;;;;;;;5013965;28;20045;-83
2023/09/08 00:12:52;;;;;;;6.38;5.03;;;;;;;;;;5030831;28;20082;-83
2023/09/08 00:15:21;;;;;;;8.35;6.25;;;;;;;;;;5013331;28;20049;-83
2023/09/08 00:17:51;;;;;;;6.95;5.30;;;;;;;;;;5031792;28;20414;-83
2023/09/08 00:20:21;;;;;;;6.82;4.85;;;;;;;;;;5029783;28;20053;-84
2023/09/08 00:22:48;;;;;;;7.53;6.03;;;;;;;;;;5012243;28;20042;-84
2023/09/08 00:25:15;;;;;;;6.35;5.75;;;;;;;;;;5030635;28;20390;-84
2023/09/08 00:27:45;;;;;;;7.05;5.40;;;;;;;;;;5031023;28;20510;-84
2023/09/08 00:30:14;;;;;;;9.23;6.07;;;;;;;;;;5031244;28;20060;-84
2023/09/08 00:32:41;;;;;;;7.22;5.70;;;;;;;;;;5014858;28;20072;-84
2023/09/08 00:35:12;;;;;;;6.50;4.72;;;;;;;;;;5053865;28;20056;-84
2023/09/08 00:37:41;;;;;;;7.60;6.90;;;;;;;;;;5030254;28;20444;-84
2023/09/08 00:40:09;;;;;;;5.85;5.00;;;;;;;;;;5064217;28;20048;-84
2023/09/08 00:42:36;;;;;;;8.25;6.18;;;;;;;;;;5027995;28;20050;-84
2023/09/08 00:45:09;;;;;;;7.75;5.80;;;;;;;;;;5029266;28;20076;-84
2023/09/08 00:47:40;;;;;;;10.00;6.80;;;;;;;;;;5030333;28;20056;-84
2023/09/08 00:50:10;;;;;;;10.52;7.30;;;;;;;;;;5014187;28;20060;-84
2023/09/08 00:52:37;;;;;;;7.95;6.60;;;;;;;;;;5013489;28;20057;-83
2023/09/08 00:55:05;;;;;;;8.27;5.47;;;;;;;;;;5029420;28;20411;-84
2023/09/08 00:57:33;;;;;;;7.65;6.88;;;;;;;;;;5013718;28;20113;-84
2023/09/08 01:00:05;;;;;;;8.30;6.93;;;;;;;;;;5063137;28;20052;-84
2023/09/08 01:02:37;;;;;;;8.00;4.95;;;;;;;;;;5030785;28;20057;-83
2023/09/08 01:05:07;;;;;;;6.05;4.57;;;;;;;;;;5011456;28;20768;-84
2023/09/08 01:07:37;;;;;;;10.48;6.55;;;;;;;;;;5011766;28;20065;-84
2023/09/08 01:10:06;;;;;;;7.80;5.80;;;;;;;;;;5030763;28;20049;-84
2023/09/08 01:12:35;;;;;;;5.78;5.28;;;;;;;;;;5047019;28;20076;-83
2023/09/08 01:15:03;;;;;;;6.45;5.28;;;;;;;;;;5009955;28;20045;-84
2023/09/08 01:17:31;;;;;;;6.80;4.68;;;;;;;;;;5013105;28;20053;-83
2023/09/08 01:20:03;;;;;;;6.30;5.50;;;;;;;;;;5029411;28;20057;-84
2023/09/08 01:23:05;;;;;;;12.55;6.03;;;;;;;;;;5013980;28;20053;-84
2023/09/08 01:25:36;;;;;;;14.77;7.25;;;;;;;;;;5000515;28;20519;-84
2023/09/08 01:28:05;;;;;;;7.13;6.30;;;;;;;;;;5030509;28;20049;-84
2023/09/08 01:30:33;;;;;;;9.63;6.30;;;;;;;;;;5029534;28;20061;-84
2023/09/08 01:33:06;;;;;;;7.90;5.13;;;;;;;;;;5013623;28;20133;-84
2023/09/08 01:35:33;;;;;;;8.30;5.05;;;;;;;;;;5010696;28;20045;-84
2023/09/08 01:38:01;;;;;;;7.50;6.80;;;;;;;;;;5012188;28;20053;-84
2023/09/08 01:40:28;;;;;;;12.00;6.80;;;;;;;;;;5030085;28;20053;-84
2023/09/08 01:42:59;;;;;;;7.57;6.15;;;;;;;;;;5013310;28;20045;-84
2023/09/08 01:45:26;;;;;;;7.05;6.38;;;;;;;;;;5012553;28;20072;-84
2023/09/08 01:47:54;;;;;;;7.43;5.88;;;;;;;;;;5008776;28;20050;-84
2023/09/08 01:50:24;;;;;;;10.05;6.95;;;;;;;;;;5012856;28;20407;-83
2023/09/08 01:52:54;;;;;;;8.93;7.18;;;;;;;;;;5012508;28;20057;-83
2023/09/08 01:55:25;;;;;;;9.27;6.25;;;;;;;;;;5026970;28;20411;-83
2023/09/08 01:57:59;;;;;;;7.70;6.50;;;;;;;;;;5011158;28;20503;-83
2023/09/08 02:00:26;;;;;;;6.63;5.85;;;;;;;;;;5012535;28;20057;-83
2023/09/08 02:02:55;;;;;;;6.80;6.07;;;;;;;;;;5046122;28;20076;-83
2023/09/08 02:05:26;;;;;;;7.72;5.10;;;;;;;;;;5027533;28;20530;-84
2023/09/08 02:07:57;;;;;;;7.88;5.72;;;;;;;;;;5012762;28;20518;-84
2023/09/08 02:10:24;;;;;;;6.93;6.25;;;;;;;;;;5029870;28;20057;-84
2023/09/08 02:12:51;;;;;;;9.55;5.40;;;;;;;;;;5031038;28;20057;-83
2023/09/08 02:15:20;;;;;;;7.60;6.57;;;;;;;;;;5029034;28;20030;-83
2023/09/08 02:17:50;;;;;;;6.88;5.57;;;;;;;;;;5042055;28;20068;-83
2023/09/08 02:20:20;;;;;;;8.80;5.10;;;;;;;;;;5014023;28;20076;-83
2023/09/08 02:22:50;;;;;;;10.40;7.30;;;;;;;;;;5009785;28;20053;-83
2023/09/08 02:25:18;;;;;;;8.93;6.45;;;;;;;;;;5005242;28;20057;-83
2023/09/08 02:27:46;;;;;;;8.38;6.38;;;;;;;;;;5010892;28;20053;-83
2023/09/08 02:30:20;;;;;;;8.02;6.50;;;;;;;;;;5029064;28;20049;-83
2023/09/08 02:32:50;;;;;;;6.30;5.70;;;;;;;;;;5027747;28;20052;-83
2023/09/08 02:35:19;;;;;;;7.40;6.22;;;;;;;;;;5062928;28;20050;-83
2023/09/08 02:37:49;;;;;;;7.68;5.80;;;;;;;;;;5027249;28;20052;-83
2023/09/08 02:40:16;;;;;;;7.97;5.65;;;;;;;;;;5053854;28;20049;-83
2023/09/08 02:42:44;;;;;;;6.90;5.78;;;;;;;;;;5029790;28;20048;-83
2023/09/08 02:45:14;;;;;;;7.90;5.93;;;;;;;;;;5012241;28;20784;-83
2023/09/08 02:47:47;;;;;;;6.60;5.85;;;;;;;;;;5012331;28;20059;-83
2023/09/08 02:50:15;;;;;;;8.20;5.88;;;;;;;;;;5012590;28;20049;-83
2023/09/08 02:52:45;;;;;;;6.65;5.63;;;;;;;;;;5013193;28;20057;-84
2023/09/08 02:55:12;;;;;;;15.43;8.05;;;;;;;;;;5010716;28;20052;-84
2023/09/08 02:57:40;;;;;;;7.97;6.35;;;;;;;;;;5010521;28;20049;-83
2023/09/08 03:00:08;;;;;;;8.43;6.75;;;;;;;;;;5011051;28;20053;-83
2023/09/08 03:02:35;;;;;;;4.97;4.47;;;;;;;;;;5029549;28;20053;-83
2023/09/08 03:05:05;;;;;;;8.27;5.60;;;;;;;;;;5027954;28;20506;-83
2023/09/08 03:07:37;;;;;;;7.00;5.47;;;;;;;;;;5016499;28;20060;-83
2023/09/08 03:10:07;;;;;;;7.28;5.32;;;;;;;;;;5031649;28;20056;-81
2023/09/08 03:12:35;;;;;;;9.10;6.13;;;;;;;;;;5015693;28;20068;-81
2023/09/08 03:15:02;;;;;;;8.93;6.25;;;;;;;;;;5014466;28;20057;-82
2023/09/08 03:17:34;;;;;;;8.13;6.65;;;;;;;;;;5025905;28;20056;-82
2023/09/08 03:20:08;;;;;;;8.40;6.72;;;;;;;;;;5064693;28;20088;-83
2023/09/08 03:22:37;;;;;;;;;;;;;;;;;;5017261;28;20049;-82
2023/09/08 03:25:05;;;;;;;6.78;6.18;;;;;;;;;;5015568;28;20325;-82
2023/09/08 03:27:35;;;;;;;7.30;5.85;;;;;;;;;;5012526;28;20057;-82
2023/09/08 03:30:06;;;;;;;15.65;6.38;;;;;;;;;;5014620;28;20538;-83
2023/09/08 03:32:36;;;;;;;14.25;6.72;;;;;;;;;;5010822;28;20056;-83
2023/09/08 03:35:07;;;;;;;8.50;5.47;;;;;;;;;;5065723;28;20503;-83
2023/09/08 03:37:35;;;;;;;9.20;6.85;;;;;;;;;;5030472;28;20060;-83
2023/09/08 03:40:04;;;;;;;10.07;6.22;;;;;;;;;;5032415;28;20053;-83
2023/09/08 03:42:32;;;;;;;7.30;5.32;;;;;;;;;;5013035;28;20419;-83
2023/09/08 03:45:01;;;;;;;7.20;5.50;;;;;;;;;;5015850;28;20060;-83
2023/09/08 03:47:31;;;;;;;6.65;5.80;;;;;;;;;;5031263;28;20053;-83
2023/09/08 03:49:58;;;;;;;6.72;6.00;;;;;;;;;;5015630;28;20423;-83
2023/09/08 03:52:29;;;;;;;6.47;5.60;;;;;;;;;;5047313;28;20057;-84
2023/09/08 03:54:59;;;;;;;7.32;5.28;;;;;;;;;;5033670;28;20053;-84
2023/09/08 03:57:28;;;;;;;6.18;4.75;;;;;;;;;;5014663;28;20526;-84
2023/09/08 03:59:56;;;;;;;7.10;6.40;;;;;;;;;;5015266;28;20514;-84
2023/09/08 04:02:26;;;;;;;7.40;5.75;;;;;;;;;;5014782;28;20418;-84
2023/09/08 04:04:53;;;;;;;10.82;6.80;;;;;;;;;;5032613;28;20053;-84
2023/09/08 04:07:20;;;;;;;7.20;6.50;;;;;;;;;;5012029;28;20053;-84
2023/09/08 04:09:51;;;;;;;8.07;7.05;;;;;;;;;;5029735;28;20060;-84
2023/09/08 04:12:18;;;;;;;4.72;4.18;;;;;;;;;;5013240;28;20056;-84
2023/09/08 04:14:49;;;;;;;8.10;5.95;;;;;;;;;;5027413;28;20049;-84
2023/09/08 04:17:16;;;;;;;8.73;6.20;;;;;;;;;;5014394;28;20069;-84
2023/09/08 04:19:43;;;;;;;7.53;5.82;;;;;;;;;;5013103;28;20049;-84
2023/09/08 04:22:13;;;;;;;6.68;5.43;;;;;;;;;;5015435;28;20187;-84
2023/09/08 04:24:40;;;;;;;12.93;6.13;;;;;;;;;;5041185;28;20057;-84
2023/09/08 04:27:10;;;;;;;7.43;6.68;;;;;;;;;;5012873;28;20049;-85
2023/09/08 04:29:39;;;;;;;6.57;4.95;;;;;;;;;;5014729;28;20058;-84
2023/09/08 04:32:09;;;;;;;6.75;5.63;;;;;;;;;;5031699;28;20056;-84
2023/09/08 04:34:38;;;;;;;5.88;4.90;;;;;;;;;;5013733;28;20056;-84
2023/09/08 04:37:05;;;;;;;8.93;6.32;;;;;;;;;;5031288;28;20423;-84
2023/09/08 04:39:33;;;;;;;6.25;5.57;;;;;;;;;;5044079;28;20500;-84
2023/09/08 04:42:03;;;;;;;7.90;6.53;;;;;;;;;;5015502;28;20061;-84
2023/09/08 04:44:32;;;;;;;9.13;5.53;;;;;;;;;;5014400;28;20052;-84
2023/09/08 04:47:02;;;;;;;6.95;5.03;;;;;;;;;;5028424;28;20121;-84
2023/09/08 04:49:34;;;;;;;7.60;6.32;;;;;;;;;;5031678;28;20064;-84
2023/09/08 04:52:04;;;;;;;7.38;5.07;;;;;;;;;;5029555;28;20518;-84
2023/09/08 04:54:34;;;;;;;8.30;5.00;;;;;;;;;;5022773;28;20053;-84
2023/09/08 04:57:02;;;;;;;7.35;5.60;;;;;;;;;;5013790;28;20053;-84
2023/09/08 04:59:38;;;;;;;8.20;5.77;;;;;;;;;;5015129;28;20057;-84
2023/09/08 05:02:06;;;;;;;9.45;7.43;;;;;;;;;;5051873;28;20522;-84
2023/09/08 05:04:36;;;;;;;5.63;5.03;;;;;;;;;;5014794;28;20053;-84
2023/09/08 05:07:06;;;;;;;7.53;6.07;;;;;;;;;;5052093;28;20064;-84
2023/09/08 05:09:34;;;;;;;7.72;5.65;;;;;;;;;;5014311;28;20045;-84
2023/09/08 05:12:05;;;;;;;8.13;6.28;;;;;;;;;;5012724;28;20053;-84
2023/09/08 05:14:36;;;;;;;6.13;5.00;;;;;;;;;;5013211;28;20058;-84
2023/09/08 05:17:04;;;;;;;7.13;6.45;;;;;;;;;;5044793;28;20042;-84
2023/09/08 05:19:32;;;;;;;8.70;6.38;;;;;;;;;;5014171;28;20053;-84
2023/09/08 05:22:00;;;;;;;7.25;6.55;;;;;;;;;;5029721;28;20054;-84
2023/09/08 05:24:30;;;;;;;6.35;5.35;;;;;;;;;;5030377;28;20411;-84
2023/09/08 05:27:00;;;;;;;7.65;5.35;;;;;;;;;;5009617;28;20057;-84
2023/09/08 05:29:27;;;;;;;8.38;6.72;;;;;;;;;;5007908;28;20057;-83
2023/09/08 05:31:56;;;;;;;11.77;6.88;;;;;;;;;;5013760;28;20046;-84
2023/09/08 05:34:24;;;;;;;12.82;7.03;;;;;;;;;;5029184;28;20511;-84
2023/09/08 05:36:52;;;;;;;9.95;7.43;;;;;;;;;;5012163;28;20582;-83
2023/09/08 05:39:24;;;;;;;7.20;6.32;;;;;;;;;;5025966;28;20068;-83
2023/09/08 05:41:53;;;;;;;10.02;6.95;;;;;;;;;;5013265;28;20060;-84
2023/09/08 05:44:21;;;;;;;6.25;5.65;;;;;;;;;;5038353;28;20530;-84
2023/09/08 05:46:53;;;;;;;6.18;5.03;;;;;;;;;;5011835;28;20049;-84
2023/09/08 05:49:22;;;;;;;5.80;5.18;;;;;;;;;;5008069;28;21188;-84
2023/09/08 05:51:49;;;;;;;6.45;5.22;;;;;;;;;;5010669;28;20056;-84
2023/09/08 05:54:16;;;;;;;6.63;4.43;;;;;;;;;;5028089;28;20053;-84
2023/09/08 05:56:46;;;;;;;4.95;4.32;;;;;;;;;;5005228;28;20545;-84
2023/09/08 05:59:16;;;;;;;7.53;5.50;;;;;;;;;;5024526;28;20046;-84
2023/09/08 06:01:46;;;;;;;5.95;4.20;;;;;;;;;;5029878;28;20525;-84
2023/09/08 06:04:15;;;;;;;7.97;6.38;;;;;;;;;;5012320;28;20060;-84
2023/09/08 06:06:47;;;;;;;5.65;4.20;;;;;;;;;;5011514;28;20045;-84
2023/09/08 06:09:16;;;;;;;9.40;4.95;;;;;;;;;;5007146;28;20049;-84
2023/09/08 06:11:47;;;;;;;6.88;4.60;;;;;;;;;;5025259;28;20053;-83
2023/09/08 06:14:17;;;;;;;5.13;4.60;;;;;;;;;;5016312;28;20056;-83
2023/09/08 06:16:48;;;;;;;6.18;4.43;;;;;;;;;;5012126;28;20049;-84
2023/09/08 06:19:18;;;;;;;8.27;5.03;;;;;;;;;;5009829;28;20042;-84
2023/09/08 06:21:50;;;;;;;6.13;5.05;;;;;;;;;;5012811;28;20056;-84
2023/09/08 06:24:22;;;;;;;9.00;5.20;;;;;;;;;;5011721;28;20533;-84
2023/09/08 06:26:52;;;;;;;11.95;5.80;;;;;;;;;;5027939;28;20068;-84
2023/09/08 06:29:26;;;;;;;6.45;4.80;;;;;;;;;;5012334;28;20057;-84
2023/09/08 06:31:56;;;;;;;7.07;5.30;;;;;;;;;;5036882;28;20526;-85
2023/09/08 06:34:26;;;;;;;5.72;4.95;;;;;;;;;;5010273;28;20050;-85
2023/09/08 06:36:54;;;;;;;6.38;5.70;;;;;;;;;;5026000;28;20041;-84
2023/09/08 06:39:26;;;;;;;4.95;4.45;;;;;;;;;;5011907;28;20061;-84
2023/09/08 06:41:57;;;;;;;5.60;4.70;;;;;;;;;;5040799;28;20419;-84
2023/09/08 06:44:25;;;;;;;5.53;4.32;;;;;;;;;;5030199;28;20065;-84
2023/09/08 06:46:57;;;;;;;12.80;5.32;;;;;;;;;;5011374;28;20037;-84
2023/09/08 06:49:28;;;;;;;8.27;5.18;;;;;;;;;;5014847;28;20060;-84
2023/09/08 06:51:56;;;;;;;7.03;4.43;;;;;;;;;;5015790;28;20056;-84
2023/09/08 06:54:26;;;;;;;6.45;5.30;;;;;;;;;;5031302;28;20058;-84
2023/09/08 06:56:53;;;;;;;6.78;4.97;;;;;;;;;;5026986;28;20037;-84
2023/09/08 06:59:23;;;;;;;5.53;4.97;;;;;;;;;;5062392;28;20053;-84
2023/09/08 07:01:53;;;;;;;6.32;5.00;;;;;;;;;;5010573;28;20045;-84
2023/09/08 07:04:20;;;;;;;5.60;4.75;;;;;;;;;;5030503;28;20518;-84
2023/09/08 07:06:49;;;;;;;9.68;5.13;;;;;;;;;;5011650;28;20041;-84
2023/09/08 07:09:21;;;;;;;6.25;4.38;;;;;;;;;;5054735;28;20526;-85
2023/09/08 07:11:48;;;;;;;5.25;4.72;;;;;;;;;;5018312;28;20045;-84
2023/09/08 07:14:18;;;;;;;4.88;4.15;;;;;;;;;;5031575;28;20556;-84
2023/09/08 07:16:47;;;;;;;5.25;4.68;;;;;;;;;;5044781;28;20056;-84
2023/09/08 07:19:17;;;;;;;5.43;4.55;;;;;;;;;;5055793;28;20049;-84
2023/09/08 07:21:49;;;;;;;7.97;5.70;;;;;;;;;;5030828;28;20051;-84
2023/09/08 07:24:21;;;;;;;5.63;5.13;;;;;;;;;;5032036;28;20056;-84
2023/09/08 07:26:51;;;;;;;5.80;4.78;;;;;;;;;;5037475;28;20053;-84
2023/09/08 07:29:18;;;;;;;6.05;4.75;;;;;;;;;;5021268;28;20053;-84
2023/09/08 07:31:46;;;;;;;4.93;4.47;;;;;;;;;;5041750;28;20054;-84
2023/09/08 07:34:13;;;;;;;5.18;4.68;;;;;;;;;;5008894;28;20053;-84
2023/09/08 07:36:44;;;;;;;5.82;4.30;;;;;;;;;;5023280;28;20406;-84
2023/09/08 07:39:11;;;;;;;7.95;4.75;;;;;;;;;;5015647;28;20045;-85
2023/09/08 07:41:40;;;;;;;6.10;4.93;;;;;;;;;;5027553;28;20060;-84
2023/09/08 07:44:08;;;;;;;6.45;4.57;;;;;;;;;;5029312;28;20038;-85
2023/09/08 07:46:38;;;;;;;7.25;4.63;;;;;;;;;;5012851;28;20060;-85
2023/09/08 07:49:05;;;;;;;5.95;5.07;;;;;;;;;;5022760;28;20060;-85
2023/09/08 07:51:34;;;;;;;7.40;4.95;;;;;;;;;;5036933;28;20053;-85
2023/09/08 07:54:05;;;;;;;6.32;5.47;;;;;;;;;;5036762;28;20398;-85
2023/09/08 07:56:32;;;;;;;6.05;4.57;;;;;;;;;;5029471;28;20048;-85
2023/09/08 07:59:03;;;;;;;7.10;4.15;;;;;;;;;;5042292;28;20045;-85
2023/09/08 08:01:30;;;;;;;13.27;4.38;;;;;;;;;;5018064;28;20046;-85
2023/09/08 08:03:57;;;;;;;6.28;4.38;;;;;;;;;;5044019;28;20053;-85
2023/09/08 08:06:25;;;;;;;5.38;3.65;;;;;;;;;;5030963;28;20049;-85
2023/09/08 08:08:57;;;;;;;5.60;4.10;;;;;;;;;;5014269;28;20049;-84
2023/09/08 08:11:25;;;;;;;8.52;5.28;;;;;;;;;;5011811;28;20053;-84
2023/09/08 08:13:56;;;;;;;4.75;4.35;;;;;;;;;;5018904;28;20601;-84
2023/09/08 08:16:28;;;;;;;5.35;4.85;;;;;;;;;;5030277;28;20053;-84
2023/09/08 08:18:55;;;;;;;5.13;4.72;;;;;;;;;;5030705;28;20046;-84
2023/09/08 08:21:22;;;;;;;5.20;4.60;;;;;;;;;;5014978;28;20056;-83
2023/09/08 08:23:51;;;;;;;5.70;5.20;;;;;;;;;;5024861;28;20049;-83
2023/09/08 08:26:23;;;;;;;6.05;5.45;;;;;;;;;;5014529;28;20057;-84
2023/09/08 08:28:59;;;;;;;5.40;4.47;;;;;;;;;;5031699;28;20060;-84
2023/09/08 08:31:30;;;;;;;4.65;4.25;;;;;;;;;;5053350;28;20459;-83
2023/09/08 08:33:57;;;;;;;5.30;4.32;;;;;;;;;;5023923;28;20048;-83
2023/09/08 08:36:27;;;;;;;5.38;4.72;;;;;;;;;;5024630;28;20045;-84
2023/09/08 08:38:56;;;;;;;4.75;4.30;;;;;;;;;;5030558;28;20116;-85
2023/09/08 08:41:31;;;;;;;7.65;5.00;;;;;;;;;;5065220;28;20056;-84
2023/09/08 08:44:01;;;;;;;11.38;5.15;;;;;;;;;;5039978;28;20056;-84
2023/09/08 08:46:33;;;;;;;6.82;4.32;;;;;;;;;;5030085;28;20045;-83
2023/09/08 08:49:04;;;;;;;4.63;4.22;;;;;;;;;;5035276;28;20043;-84
2023/09/08 08:51:32;;;;;;;5.78;3.75;;;;;;;;;;5018966;28;20045;-84
2023/09/08 08:54:04;;;;;;;;;;;;;;;;;;5033605;28;20387;-84
2023/09/08 08:56:32;;;;;;;4.75;4.20;;;;;;;;;;5033168;28;19921;-84
2023/09/08 08:59:02;;;;;;;5.35;4.72;;;;;;;;;;5030938;28;20036;-84
2023/09/08 09:01:32;;;;;;;6.28;4.85;;;;;;;;;;5031518;28;20033;-84
2023/09/08 09:03:59;;;;;;;5.07;4.68;;;;;;;;;;5030534;28;20426;-84
2023/09/08 09:06:26;;;;;;;9.13;5.13;;;;;;;;;;5022563;28;20384;-84
2023/09/08 09:08:54;;;;;;;4.97;4.47;;;;;;;;;;5029198;28;20048;-83
2023/09/08 09:11:21;;;;;;;5.85;4.47;;;;;;;;;;5037346;28;20049;-84
2023/09/08 09:13:48;;;;;;;5.03;4.22;;;;;;;;;;5015305;28;20046;-84
2023/09/08 09:16:20;;;;;;;9.57;5.10;;;;;;;;;;5030438;28;20407;-84
2023/09/08 09:18:59;;;;;;;5.35;4.85;;;;;;;;;;5036531;28;20049;-84
2023/09/08 09:21:42;;;;;;;5.32;4.20;;;;;;;;;;5022649;28;20052;-84
2023/09/08 09:24:15;;;;;;;6.78;4.28;;;;;;;;;;5014870;28;20050;-84
2023/09/08 09:26:42;;;;;;;10.60;4.97;;;;;;;;;;5034396;28;20056;-84
2023/09/08 09:29:15;;;;;;;14.85;4.75;;;;;;;;;;5019384;28;20053;-84
2023/09/08 09:31:52;;;;;;;5.90;4.93;;;;;;;;;;5066308;28;20075;-84
2023/09/08 09:34:21;;;;;;;5.05;4.65;;;;;;;;;;5014348;28;20079;-84
2023/09/08 09:36:52;;;;;;;6.82;5.03;;;;;;;;;;5026467;28;20060;-83
2023/09/08 09:39:20;;;;;;;5.47;4.30;;;;;;;;;;5011535;28;20052;-84
2023/09/08 09:41:47;;;;;;;6.43;4.55;;;;;;;;;;5040143;28;20048;-85
2023/09/08 09:44:17;;;;;;;6.75;5.35;;;;;;;;;;5038650;28;20509;-84
2023/09/08 09:46:47;;;;;;;5.40;5.00;;;;;;;;;;5028591;28;20049;-84
2023/09/08 09:49:21;;;;;;;4.95;4.53;;;;;;;;;;5029532;28;20056;-84
2023/09/08 09:51:51;;;;;;;8.88;4.90;;;;;;;;;;5039092;28;20063;-84
2023/09/08 09:54:23;;;;;;;;;;;;;;;;;;5015608;28;20057;-84
2023/09/08 09:56:51;;;;;;;4.97;4.47;;;;;;;;;;5006805;28;19925;-83
2023/09/08 09:59:22;;;;;;;6.63;4.53;;;;;;;;;;5040332;28;20061;-83
2023/09/08 10:01:50;;;;;;;6.07;3.70;;;;;;;;;;5026704;28;20507;-84
2023/09/08 10:04:17;;;;;;;4.75;4.10;;;;;;;;;;5045610;28;20060;-84
2023/09/08 10:06:51;;;;;;;4.68;4.28;;;;;;;;;;5028701;28;20507;-84
2023/09/08 10:09:19;;;;;;;6.00;4.20;;;;;;;;;;5033381;28;20503;-84
2023/09/08 10:11:49;;;;;;;4.75;4.35;;;;;;;;;;5025696;28;20044;-84
2023/09/08 10:14:42;;;;;;;8.35;5.10;;;;;;;;;;5029675;28;20514;-84
2023/09/08 10:17:24;;;;;;;5.95;4.40;;;;;;;;;;5033141;28;20060;-84
2023/09/08 10:19:55;;;;;;;5.75;4.30;;;;;;;;;;5014296;28;20057;-84
2023/09/08 10:22:43;;;;;;;10.73;4.90;;;;;;;;;;5037679;28;20057;-84
2023/09/08 10:25:18;;;;;;;4.97;4.47;;;;;;;;;;5022527;28;20483;-84
2023/09/08 10:27:45;;;;;;;5.53;4.68;;;;;;;;;;5025131;28;20045;-84
2023/09/08 10:30:16;;;;;;;4.50;4.10;;;;;;;;;;5022105;28;20060;-84
2023/09/08 10:32:45;;;;;;;6.03;4.20;;;;;;;;;;5033415;28;20040;-84
2023/09/08 10:35:13;;;;;;;4.50;4.07;;;;;;;;;;5015879;28;20049;-84
2023/09/08 10:37:49;;;;;;;10.75;5.05;;;;;;;;;;5028581;28;20048;-84
2023/09/08 10:40:23;;;;;;;7.80;5.43;;;;;;;;;;5013260;28;20045;-84
2023/09/08 10:43:09;;;;;;;4.30;3.90;;;;;;;;;;5031114;28;20048;-83
2023/09/08 10:45:41;;;;;;;5.43;4.60;;;;;;;;;;5030336;28;20648;-84
2023/09/08 10:48:13;;;;;;;5.32;4.75;;;;;;;;;;5060547;28;20045;-84
2023/09/08 10:50:45;;;;;;;6.40;3.95;;;;;;;;;;5029782;28;20045;-84
2023/09/08 10:53:17;;;;;;;4.97;4.53;;;;;;;;;;5031597;28;20058;-84
2023/09/08 10:55:48;;;;;;;8.05;4.70;;;;;;;;;;5034456;28;20060;-84
2023/09/08 10:58:19;;;;;;;11.15;5.13;;;;;;;;;;5035205;28;20041;-84
2023/09/08 11:00:48;;;;;;;6.28;5.22;;;;;;;;;;5063445;28;20050;-84
2023/09/08 11:03:27;;;;;;;8.00;3.80;;;;;;;;;;5027375;28;20068;-84
2023/09/08 11:05:55;;;;;;;8.20;4.30;;;;;;;;;;5014290;28;20506;-83
2023/09/08 11:08:28;;;;;;;6.05;4.82;;;;;;;;;;5014380;28;20048;-84
2023/09/08 11:10:56;;;;;;;4.18;3.88;;;;;;;;;;5019240;28;20052;-83
2023/09/08 11:13:28;;;;;;;6.95;4.18;;;;;;;;;;5034629;28;20057;-84
2023/09/08 11:15:56;;;;;;;5.13;4.70;;;;;;;;;;5036191;28;20418;-84
2023/09/08 11:18:27;;;;;;;9.98;5.20;;;;;;;;;;5035053;28;20391;-84
2023/09/08 11:20:57;;;;;;;6.22;4.40;;;;;;;;;;5030582;28;20049;-84
2023/09/08 11:23:28;;;;;;;5.15;4.50;;;;;;;;;;5017377;28;20063;-84
2023/09/08 11:28:56;;;;;;;5.88;4.43;;;;;;;;;;5030535;28;20050;-84
2023/09/08 11:31:23;;;;;;;5.35;4.28;;;;;;;;;;5024035;28;20053;-84
2023/09/08 11:33:55;;;;;;;5.07;4.10;;;;;;;;;;5039155;28;20064;-84
2023/09/08 11:36:23;;;;;;;4.78;3.90;;;;;;;;;;5024776;28;20545;-84
2023/09/08 11:38:53;;;;;;;5.22;4.50;;;;;;;;;;5032487;28;20038;-84
2023/09/08 11:41:23;;;;;;;8.27;4.55;;;;;;;;;;5041164;28;20049;-84
2023/09/08 11:43:50;;;;;;;5.38;4.88;;;;;;;;;;5040962;28;20053;-84
2023/09/08 11:46:18;;;;;;;5.07;4.60;;;;;;;;;;5024991;28;20053;-85
2023/09/08 11:48:45;;;;;;;6.20;4.13;;;;;;;;;;5014042;28;20037;-84
2023/09/08 11:51:12;;;;;;;6.68;4.07;;;;;;;;;;5018519;28;20510;-85
2023/09/08 11:53:42;;;;;;;4.90;4.40;;;;;;;;;;5021864;28;20057;-85
2023/09/08 11:56:11;;;;;;;5.93;4.63;;;;;;;;;;5031229;28;20049;-85
2023/09/08 11:58:41;;;;;;;5.93;4.22;;;;;;;;;;5014496;28;20061;-85
2023/09/08 12:01:13;;;;;;;5.82;3.97;;;;;;;;;;5018232;28;20057;-84
2023/09/08 12:03:54;;;;;;;6.95;4.60;;;;;;;;;;5030695;28;20528;-84
2023/09/08 12:06:27;;;;;;;4.45;4.05;;;;;;;;;;5038235;28;20060;-84
2023/09/08 12:08:54;;;;;;;4.78;4.07;;;;;;;;;;5016490;28;20058;-84
2023/09/08 12:11:23;;;;;;;4.65;4.25;;;;;;;;;;5025741;28;20049;-84
2023/09/08 12:13:50;;;;;;;5.30;4.38;;;;;;;;;;5032303;28;20415;-84
2023/09/08 12:16:22;;;;;;;6.65;3.95;;;;;;;;;;5034719;28;20057;-83
2023/09/08 12:18:50;;;;;;;5.13;4.28;;;;;;;;;;5032110;28;20049;-84
2023/09/08 12:21:20;;;;;;;5.38;4.88;;;;;;;;;;5009418;28;20049;-83
2023/09/08 12:23:50;;;;;;;5.28;4.78;;;;;;;;;;5038041;28;20064;-84
2023/09/08 12:26:20;;;;;;;4.57;4.18;;;;;;;;;;5017950;28;20061;-84
2023/09/08 12:28:51;;;;;;;4.30;3.65;;;;;;;;;;5023181;28;20526;-85
2023/09/08 12:31:18;;;;;;;4.38;3.97;;;;;;;;;;5027777;28;20628;-84
2023/09/08 12:33:47;;;;;;;5.47;4.88;;;;;;;;;;5026443;28;20557;-84
2023/09/08 12:36:15;;;;;;;3.85;3.47;;;;;;;;;;5029381;28;20073;-85
2023/09/08 12:38:48;;;;;;;4.55;4.15;;;;;;;;;;5034412;28;20056;-84
2023/09/08 12:41:18;;;;;;;5.25;4.22;;;;;;;;;;5013958;28;20765;-84
2023/09/08 12:43:45;;;;;;;7.55;4.75;;;;;;;;;;5006608;28;20060;-84
2023/09/08 12:46:19;;;;;;;4.88;3.90;;;;;;;;;;5028872;28;20053;-84
2023/09/08 12:48:46;;;;;;;10.00;4.03;;;;;;;;;;5034290;28;20050;-84
2023/09/08 12:51:18;;;;;;;6.45;4.38;;;;;;;;;;5029569;28;20409;-84
2023/09/08 12:53:47;;;;;;;5.00;4.45;;;;;;;;;;5026109;28;20057;-84
2023/09/08 12:56:14;;;;;;;6.38;4.72;;;;;;;;;;5011844;28;20056;-84
2023/09/08 12:58:42;;;;;;;4.38;3.97;;;;;;;;;;5031674;28;20410;-84
2023/09/08 13:01:09;;;;;;;4.28;3.85;;;;;;;;;;5041287;28;20056;-84
2023/09/08 13:03:40;;;;;;;4.30;3.90;;;;;;;;;;5027845;28;20057;-84
2023/09/08 13:06:09;;;;;;;5.70;3.95;;;;;;;;;;5043402;28;20052;-84
2023/09/08 13:08:37;;;;;;;4.68;4.22;;;;;;;;;;5013865;28;20049;-84
2023/09/08 13:11:04;;;;;;;4.50;4.00;;;;;;;;;;5028888;28;20056;-84
2023/09/08 13:13:31;;;;;;;5.72;4.65;;;;;;;;;;5010408;28;20059;-84
2023/09/08 13:16:01;;;;;;;4.80;4.40;;;;;;;;;;5008574;28;20050;-84
2023/09/08 13:18:35;;;;;;;4.07;3.65;;;;;;;;;;5031389;28;20403;-84
2023/09/08 13:21:04;;;;;;;4.97;3.80;;;;;;;;;;5017182;28;20044;-84
2023/09/08 13:23:31;;;;;;;6.25;4.10;;;;;;;;;;5006590;28;20054;-84
2023/09/08 13:26:00;;;;;;;4.75;3.75;;;;;;;;;;5029015;28;20053;-84
2023/09/08 13:28:30;;;;;;;4.70;4.25;;;;;;;;;;5012540;28;20049;-84
2023/09/08 13:30:59;;;;;;;5.40;4.90;;;;;;;;;;5021838;28;20522;-84
2023/09/08 13:33:29;;;;;;;3.78;3.35;;;;;;;;;;5020203;28;20048;-84
2023/09/08 13:35:56;;;;;;;4.85;4.13;;;;;;;;;;5029794;28;20053;-84
2023/09/08 13:38:25;;;;;;;5.88;4.60;;;;;;;;;;5018532;28;20423;-84
2023/09/08 13:40:54;;;;;;;6.20;3.92;;;;;;;;;;5028470;28;20072;-84
2023/09/08 13:43:22;;;;;;;4.57;3.22;;;;;;;;;;5012941;28;20053;-84
2023/09/08 13:45:51;;;;;;;5.00;3.95;;;;;;;;;;5028121;28;20059;-84
2023/09/08 13:48:19;;;;;;;4.45;3.95;;;;;;;;;;5027691;28;20049;-84
2023/09/08 13:50:48;;;;;;;7.40;3.92;;;;;;;;;;5006961;28;20159;-84
2023/09/08 13:53:15;;;;;;;4.65;4.05;;;;;;;;;;5057583;28;20049;-84
2023/09/08 13:55:44;;;;;;;4.22;3.83;;;;;;;;;;5025182;28;20056;-84
2023/09/08 13:58:11;;;;;;;4.45;3.65;;;;;;;;;;5012225;28;20052;-84
2023/09/08 14:00:42;;;;;;;6.13;4.15;;;;;;;;;;5020833;28;20053;-84
2023/09/08 14:03:09;;;;;;;4.10;3.72;;;;;;;;;;5033867;28;20045;-84
2023/09/08 14:05:37;;;;;;;5.82;4.35;;;;;;;;;;5027782;28;20048;-84
2023/09/08 14:08:04;;;;;;;9.98;4.55;;;;;;;;;;5013074;28;20621;-84
2023/09/08 14:10:36;;;;;;;5.30;3.75;;;;;;;;;;5063420;28;20052;-84
2023/09/08 16:42:26;;;;;;;6.05;4.45;;;;;;;;;;1353309;26;20135;-82
2023/09/08 16:44:54;;;;;;;4.90;4.40;;;;;;;;;;5015637;28;20049;-84
2023/09/08 16:47:24;;;;;;;6.25;4.43;;;;;;;;;;5051626;28;20519;-82
2023/09/08 16:49:52;;;;;;;6.07;5.20;;;;;;;;;;5053220;28;20501;-82
2023/09/08 16:52:20;;;;;;;7.95;5.05;;;;;;;;;;5069832;28;20494;-84
2023/09/08 17:11:05;;;;;;;5.18;4.70;;;;;;;;;;4850976;28;20051;-83
2023/09/08 17:13:33;;;;;;;4.90;4.35;;;;;;;;;;5012541;28;20048;-83
2023/09/08 17:16:04;;;;;;;4.43;4.03;;;;;;;;;;5067414;28;20048;-83
2023/09/08 17:18:31;;;;;;;6.95;5.25;;;;;;;;;;5045014;28;20469;-83
2023/09/08 17:21:00;;;;;;;5.15;4.65;;;;;;;;;;5033501;28;20405;-83
2023/09/08 17:23:27;;;;;;;6.03;5.05;;;;;;;;;;5035363;28;20048;-82
2023/09/08 17:25:54;;;;;;;7.05;4.18;;;;;;;;;;5069265;28;20052;-82
2023/09/08 17:28:23;;;;;;;4.70;4.25;;;;;;;;;;5036211;28;20040;-82
2023/09/08 17:30:51;;;;;;;5.65;4.82;;;;;;;;;;5065223;28;20054;-82
2023/09/08 17:33:18;;;;;;;5.22;4.35;;;;;;;;;;5072909;28;20055;-82
2023/09/08 17:35:47;;;;;;;5.35;4.55;;;;;;;;;;5076765;28;20051;-83
2023/09/08 17:38:15;;;;;;;7.40;4.80;;;;;;;;;;5051026;28;20048;-83
2023/09/08 17:40:42;;;;;;;5.85;5.28;;;;;;;;;;5069516;28;20246;-83
2023/09/08 17:43:10;;;;;;;8.90;4.28;;;;;;;;;;5050926;28;20051;-83
2023/09/08 17:45:39;;;;;;;5.05;4.47;;;;;;;;;;5052755;28;20055;-84